createdAt,value
2017-10-18T00:00:58.432Z,12.33
2017-10-18T00:01:58.459Z,12.27
2017-10-18T00:02:58.496Z,12.23
2017-10-18T00:03:58.532Z,12.20
2017-10-18T00:04:58.567Z,12.16
2017-10-18T00:05:58.606Z,12.23
2017-10-18T00:06:58.639Z,12.16
2017-10-18T00:07:58.673Z,12.26
2017-10-18T00:08:58.710Z,12.15
2017-10-18T00:09:58.751Z,12.21
2017-10-18T00:10:58.781Z,12.20
2017-10-18T00:11:58.818Z,12.11
2017-10-18T00:12:58.859Z,12.11
2017-10-18T00:13:58.900Z,12.13
2017-10-18T00:14:58.927Z,12.09
2017-10-18T00:15:58.968Z,12.13
2017-10-18T00:16:58.994Z,12.11
2017-10-18T00:17:59.041Z,12.11
2017-10-18T00:18:59.066Z,11.93
2017-10-18T00:19:59.106Z,12.11
2017-10-18T00:20:59.137Z,12.09
2017-10-18T00:21:59.179Z,11.96
2017-10-18T00:22:59.209Z,11.96
2017-10-18T00:23:59.243Z,11.94
2017-10-18T00:24:59.285Z,11.94
2017-10-18T00:25:59.315Z,11.94
2017-10-18T00:26:59.351Z,12.01
2017-10-18T00:27:59.388Z,12.06
2017-10-18T00:28:59.422Z,11.93
2017-10-18T00:29:59.458Z,11.96
2017-10-18T00:30:59.494Z,11.94
2017-10-18T00:31:59.542Z,11.96
2017-10-18T00:32:59.568Z,11.96
2017-10-18T00:33:59.604Z,11.89
2017-10-18T00:34:59.637Z,11.82
2017-10-18T00:35:59.675Z,11.85
2017-10-18T00:36:59.709Z,11.90
2017-10-18T00:37:59.754Z,11.90
2017-10-18T00:38:59.785Z,11.89
2017-10-18T00:39:59.812Z,11.82
2017-10-18T00:40:59.847Z,11.82
2017-10-18T00:41:59.883Z,11.94
2017-10-18T00:42:59.920Z,11.94
2017-10-18T00:43:59.956Z,11.86
2017-10-18T00:44:59.995Z,11.78
2017-10-18T00:46:00.028Z,11.86
2017-10-18T00:47:00.063Z,11.82
2017-10-18T00:48:00.102Z,11.83
2017-10-18T00:49:00.131Z,11.87
2017-10-18T00:50:00.169Z,11.89
2017-10-18T00:51:00.209Z,11.82
2017-10-18T00:52:00.236Z,11.80
2017-10-18T00:53:00.274Z,11.71
2017-10-18T00:54:00.313Z,11.72
2017-10-18T00:55:00.348Z,11.71
2017-10-18T00:56:00.378Z,11.78
2017-10-18T00:57:00.415Z,11.77
2017-10-18T00:58:00.451Z,11.77
2017-10-18T00:59:00.485Z,11.70
2017-10-18T01:00:00.520Z,11.68
2017-10-18T01:01:00.557Z,11.70
2017-10-18T01:02:00.590Z,11.68
2017-10-18T01:03:00.632Z,11.68
2017-10-18T01:04:00.666Z,11.68
2017-10-18T01:05:00.696Z,11.72
2017-10-18T01:06:00.735Z,11.64
2017-10-18T01:07:00.790Z,11.65
2017-10-18T01:08:00.802Z,11.70
2017-10-18T01:09:00.845Z,11.68
2017-10-18T01:10:00.874Z,11.70
2017-10-18T01:11:00.917Z,11.68
2017-10-18T01:12:00.948Z,11.74
2017-10-18T01:13:00.978Z,11.74
2017-10-18T01:14:01.018Z,11.65
2017-10-18T01:15:01.051Z,11.77
2017-10-18T01:16:01.087Z,11.71
2017-10-18T01:17:01.122Z,11.65
2017-10-18T01:18:01.159Z,11.65
2017-10-18T01:19:01.193Z,11.67
2017-10-18T01:20:01.228Z,11.71
2017-10-18T01:21:01.262Z,11.62
2017-10-18T01:22:01.295Z,11.61
2017-10-18T01:23:01.338Z,11.64
2017-10-18T01:24:01.368Z,11.62
2017-10-18T01:25:01.404Z,11.61
2017-10-18T01:26:01.437Z,11.54
2017-10-18T01:27:01.476Z,11.52
2017-10-18T01:28:01.507Z,11.54
2017-10-18T01:29:01.545Z,11.50
2017-10-18T01:30:01.592Z,11.57
2017-10-18T01:31:01.615Z,11.54
2017-10-18T01:32:01.647Z,11.49
2017-10-18T01:33:01.683Z,11.52
2017-10-18T01:34:01.719Z,11.47
2017-10-18T01:35:01.754Z,11.38
2017-10-18T01:36:01.792Z,11.44
2017-10-18T01:37:01.826Z,11.44
2017-10-18T01:38:01.859Z,11.39
2017-10-18T01:39:01.898Z,11.44
2017-10-18T01:40:01.935Z,11.44
2017-10-18T01:41:01.968Z,11.43
2017-10-18T01:42:02.004Z,11.39
2017-10-18T01:43:02.036Z,11.49
2017-10-18T01:44:02.068Z,11.41
2017-10-18T01:45:02.107Z,11.41
2017-10-18T01:46:02.147Z,11.39
2017-10-18T01:47:02.180Z,11.44
2017-10-18T01:48:02.214Z,11.38
2017-10-18T01:49:02.246Z,11.38
2017-10-18T01:50:02.284Z,11.38
2017-10-18T01:51:02.317Z,11.32
2017-10-18T01:52:02.349Z,11.41
2017-10-18T01:53:02.385Z,11.35
2017-10-18T01:54:02.424Z,11.36
2017-10-18T01:55:02.457Z,11.38
2017-10-18T01:56:02.489Z,11.35
2017-10-18T01:57:02.533Z,11.43
2017-10-18T01:58:02.563Z,11.35
2017-10-18T01:59:02.599Z,11.32
2017-10-18T02:00:02.636Z,11.29
2017-10-18T02:01:02.666Z,11.27
2017-10-18T02:02:02.700Z,11.34
2017-10-18T02:03:02.739Z,11.32
2017-10-18T02:04:02.771Z,11.27
2017-10-18T02:05:02.814Z,11.21
2017-10-18T02:06:02.841Z,11.19
2017-10-18T02:07:02.882Z,11.21
2017-10-18T02:08:02.910Z,11.13
2017-10-18T02:09:02.946Z,11.19
2017-10-18T02:10:02.986Z,11.16
2017-10-18T02:11:03.017Z,11.19
2017-10-18T02:12:03.052Z,11.07
2017-10-18T02:13:03.093Z,11.11
2017-10-18T02:14:03.125Z,11.02
2017-10-18T02:15:03.160Z,11.13
2017-10-18T02:16:03.190Z,11.13
2017-10-18T02:17:03.231Z,11.11
2017-10-18T02:18:03.260Z,11.10
2017-10-18T02:19:03.295Z,11.13
2017-10-18T02:20:03.328Z,11.10
2017-10-18T02:21:03.365Z,11.07
2017-10-18T02:22:03.402Z,11.07
2017-10-18T02:23:03.438Z,11.06
2017-10-18T02:24:03.466Z,11.11
2017-10-18T02:25:03.505Z,11.10
2017-10-18T02:26:03.537Z,11.09
2017-10-18T02:27:03.573Z,10.99
2017-10-18T02:28:03.626Z,10.98
2017-10-18T02:29:03.643Z,11.06
2017-10-18T02:30:03.691Z,10.99
2017-10-18T02:31:03.713Z,11.03
2017-10-18T02:32:03.747Z,10.96
2017-10-18T02:33:03.781Z,11.01
2017-10-18T02:34:03.818Z,10.94
2017-10-18T02:35:03.851Z,10.99
2017-10-18T02:36:03.891Z,10.99
2017-10-18T02:37:03.921Z,10.99
2017-10-18T02:38:03.954Z,10.98
2017-10-18T02:39:04.000Z,11.01
2017-10-18T02:40:04.025Z,10.95
2017-10-18T02:41:04.060Z,11.01
2017-10-18T02:42:04.095Z,10.94
2017-10-18T02:43:04.131Z,10.96
2017-10-18T02:44:04.168Z,10.95
2017-10-18T02:45:04.199Z,11.02
2017-10-18T02:46:04.235Z,10.94
2017-10-18T02:47:04.270Z,10.88
2017-10-18T02:48:04.302Z,10.92
2017-10-18T02:49:04.336Z,10.91
2017-10-18T02:50:04.377Z,10.91
2017-10-18T02:51:04.414Z,10.94
2017-10-18T02:52:04.440Z,10.98
2017-10-18T02:53:04.478Z,10.99
2017-10-18T02:54:04.516Z,10.94
2017-10-18T02:55:04.555Z,10.92
2017-10-18T02:56:04.581Z,10.92
2017-10-18T02:57:04.620Z,10.95
2017-10-18T02:58:04.650Z,10.88
2017-10-18T02:59:04.688Z,10.91
2017-10-18T03:00:04.716Z,10.88
2017-10-18T03:01:04.757Z,10.76
2017-10-18T03:02:04.794Z,10.80
2017-10-18T03:03:04.824Z,10.78
2017-10-18T03:04:04.854Z,10.81
2017-10-18T03:05:04.889Z,10.78
2017-10-18T03:06:04.929Z,10.70
2017-10-18T03:07:04.959Z,10.74
2017-10-18T03:08:04.995Z,10.76
2017-10-18T03:09:05.030Z,10.66
2017-10-18T03:10:05.068Z,10.73
2017-10-18T03:11:05.101Z,10.68
2017-10-18T03:12:05.141Z,10.73
2017-10-18T03:13:05.174Z,10.66
2017-10-18T03:14:05.204Z,10.63
2017-10-18T03:15:05.238Z,10.71
2017-10-18T03:16:05.271Z,10.63
2017-10-18T03:17:05.305Z,10.58
2017-10-18T03:18:05.340Z,10.63
2017-10-18T03:19:05.383Z,10.59
2017-10-18T03:20:05.434Z,10.56
2017-10-18T03:21:05.452Z,10.58
2017-10-18T03:22:05.479Z,10.63
2017-10-18T03:23:05.520Z,10.62
2017-10-18T03:24:05.554Z,10.68
2017-10-18T03:25:05.593Z,10.62
2017-10-18T03:26:05.618Z,10.63
2017-10-18T03:27:05.656Z,10.66
2017-10-18T03:28:05.689Z,10.60
2017-10-18T03:29:05.730Z,10.58
2017-10-18T03:30:05.757Z,10.60
2017-10-18T03:31:05.790Z,10.63
2017-10-18T03:32:05.830Z,10.55
2017-10-18T03:33:05.858Z,10.52
2017-10-18T03:34:05.904Z,10.60
2017-10-18T03:35:05.930Z,10.58
2017-10-18T03:36:05.965Z,10.55
2017-10-18T03:37:05.997Z,10.60
2017-10-18T03:38:06.031Z,10.55
2017-10-18T03:39:06.064Z,10.65
2017-10-18T03:40:06.102Z,10.55
2017-10-18T03:41:06.133Z,10.58
2017-10-18T03:42:06.169Z,10.58
2017-10-18T03:43:06.205Z,10.63
2017-10-18T03:44:06.237Z,10.63
2017-10-18T03:45:06.276Z,10.56
2017-10-18T03:46:06.313Z,10.63
2017-10-18T03:47:06.354Z,10.46
2017-10-18T03:48:06.373Z,10.55
2017-10-18T03:49:06.414Z,10.56
2017-10-18T03:50:06.444Z,10.53
2017-10-18T03:51:06.476Z,10.65
2017-10-18T03:52:06.523Z,10.46
2017-10-18T03:53:06.554Z,10.55
2017-10-18T03:54:06.579Z,10.47
2017-10-18T03:55:06.619Z,10.58
2017-10-18T03:56:06.652Z,10.53
2017-10-18T03:57:06.684Z,10.53
2017-10-18T03:58:06.717Z,10.47
2017-10-18T03:59:06.757Z,10.39
2017-10-18T04:00:06.791Z,10.51
2017-10-18T04:01:06.823Z,10.46
2017-10-18T04:02:06.851Z,10.47
2017-10-18T04:03:06.886Z,10.55
2017-10-18T04:04:06.923Z,10.55
2017-10-18T04:05:06.956Z,10.43
2017-10-18T04:06:07.019Z,10.44
2017-10-18T04:07:07.038Z,10.47
2017-10-18T04:08:07.059Z,10.55
2017-10-18T04:09:07.093Z,10.52
2017-10-18T04:10:07.128Z,10.46
2017-10-18T04:11:07.165Z,10.47
2017-10-18T04:12:07.200Z,10.46
2017-10-18T04:13:07.233Z,10.47
2017-10-18T04:14:07.263Z,10.42
2017-10-18T04:15:07.298Z,10.42
2017-10-18T04:16:07.331Z,10.44
2017-10-18T04:17:07.368Z,10.42
2017-10-18T04:18:07.411Z,10.39
2017-10-18T04:19:07.435Z,10.34
2017-10-18T04:20:07.474Z,10.30
2017-10-18T04:21:07.503Z,10.37
2017-10-18T04:22:07.544Z,10.28
2017-10-18T04:23:07.580Z,10.26
2017-10-18T04:24:07.608Z,10.30
2017-10-18T04:25:07.641Z,10.25
2017-10-18T04:26:07.674Z,10.28
2017-10-18T04:27:07.712Z,10.34
2017-10-18T04:28:07.741Z,10.30
2017-10-18T04:29:07.799Z,10.28
2017-10-18T04:30:07.812Z,10.34
2017-10-18T04:31:07.866Z,10.24
2017-10-18T04:32:07.880Z,10.30
2017-10-18T04:33:07.917Z,10.30
2017-10-18T04:34:07.950Z,10.42
2017-10-18T04:35:07.981Z,10.42
2017-10-18T04:36:08.020Z,10.44
2017-10-18T04:37:08.052Z,10.42
2017-10-18T04:38:08.085Z,10.40
2017-10-18T04:39:08.119Z,10.44
2017-10-18T04:40:08.153Z,10.46
2017-10-18T04:41:08.198Z,10.42
2017-10-18T04:42:08.222Z,10.40
2017-10-18T04:43:08.257Z,10.46
2017-10-18T04:44:08.294Z,10.44
2017-10-18T04:45:08.325Z,10.46
2017-10-18T04:46:08.358Z,10.43
2017-10-18T04:47:08.396Z,10.39
2017-10-18T04:48:08.430Z,10.36
2017-10-18T04:49:08.462Z,10.39
2017-10-18T04:50:08.495Z,10.36
2017-10-18T04:51:08.531Z,10.39
2017-10-18T04:52:08.570Z,10.32
2017-10-18T04:53:08.597Z,10.30
2017-10-18T04:54:08.634Z,10.37
2017-10-18T04:55:08.666Z,10.44
2017-10-18T04:56:08.700Z,10.43
2017-10-18T04:57:08.741Z,10.37
2017-10-18T04:58:08.768Z,10.28
2017-10-18T04:59:08.808Z,10.37
2017-10-18T05:00:08.840Z,10.36
2017-10-18T05:01:08.894Z,10.34
2017-10-18T05:02:08.905Z,10.34
2017-10-18T05:03:08.939Z,10.40
2017-10-18T05:04:08.978Z,10.34
2017-10-18T05:05:09.012Z,10.43
2017-10-18T05:06:09.045Z,10.36
2017-10-18T05:07:09.128Z,10.32
2017-10-18T05:08:09.109Z,10.36
2017-10-18T05:09:09.146Z,10.44
2017-10-18T05:10:09.182Z,10.34
2017-10-18T05:11:09.222Z,10.36
2017-10-18T05:12:09.249Z,10.40
2017-10-18T05:13:09.289Z,10.44
2017-10-18T05:14:09.321Z,10.40
2017-10-18T05:15:09.351Z,10.46
2017-10-18T05:16:09.387Z,10.44
2017-10-18T05:17:09.417Z,10.40
2017-10-18T05:18:09.463Z,10.52
2017-10-18T05:19:09.491Z,10.43
2017-10-18T05:20:09.526Z,10.58
2017-10-18T05:21:09.569Z,10.47
2017-10-18T05:22:09.600Z,10.56
2017-10-18T05:23:09.623Z,10.52
2017-10-18T05:24:09.658Z,10.60
2017-10-18T05:25:09.693Z,10.55
2017-10-18T05:26:09.728Z,10.47
2017-10-18T05:27:09.760Z,10.52
2017-10-18T05:28:09.796Z,10.53
2017-10-18T05:29:09.833Z,10.51
2017-10-18T05:30:09.897Z,10.44
2017-10-18T05:31:09.898Z,10.52
2017-10-18T05:32:09.944Z,10.43
2017-10-18T05:33:09.964Z,10.58
2017-10-18T05:34:10.013Z,10.51
2017-10-18T05:35:10.049Z,10.55
2017-10-18T05:36:10.122Z,10.53
2017-10-18T05:37:10.146Z,10.42
2017-10-18T05:38:10.155Z,10.55
2017-10-18T05:39:10.173Z,10.46
2017-10-18T05:40:10.291Z,10.43
2017-10-18T05:41:10.241Z,10.46
2017-10-18T05:42:10.278Z,10.46
2017-10-18T05:43:10.334Z,10.51
2017-10-18T05:44:10.340Z,10.43
2017-10-18T05:45:10.373Z,10.42
2017-10-18T05:46:10.464Z,10.42
2017-10-18T05:47:10.612Z,10.53
2017-10-18T05:48:10.477Z,10.46
2017-10-18T05:49:10.519Z,10.53
2017-10-18T05:50:10.552Z,10.53
2017-10-18T05:51:10.584Z,10.53
2017-10-18T05:52:10.613Z,10.53
2017-10-18T05:53:10.652Z,10.60
2017-10-18T05:54:10.682Z,10.52
2017-10-18T05:55:10.726Z,10.62
2017-10-18T05:56:10.760Z,10.60
2017-10-18T05:57:10.795Z,10.60
2017-10-18T05:58:10.900Z,10.63
2017-10-18T05:59:10.870Z,10.63
2017-10-18T06:00:10.890Z,10.68
2017-10-18T06:01:10.969Z,10.71
2017-10-18T06:02:10.980Z,10.66
2017-10-18T06:03:11.013Z,10.74
2017-10-18T06:04:11.038Z,10.81
2017-10-18T06:05:11.099Z,10.76
2017-10-18T06:06:11.117Z,10.84
2017-10-18T06:07:11.157Z,10.81
2017-10-18T06:08:11.165Z,10.92
2017-10-18T06:09:11.237Z,10.91
2017-10-18T06:10:11.252Z,10.92
2017-10-18T06:11:11.264Z,11.01
2017-10-18T06:12:11.298Z,10.94
2017-10-18T06:13:11.339Z,10.99
2017-10-18T06:14:11.371Z,10.96
2017-10-18T06:15:11.466Z,10.98
2017-10-18T06:16:11.439Z,10.95
2017-10-18T06:17:11.480Z,11.07
2017-10-18T06:18:11.520Z,11.02
2017-10-18T06:19:11.551Z,11.01
2017-10-18T06:20:11.592Z,11.06
2017-10-18T06:21:11.627Z,11.09
2017-10-18T06:22:11.652Z,11.07
2017-10-18T06:23:11.683Z,11.10
2017-10-18T06:24:11.743Z,11.11
2017-10-18T06:25:11.756Z,11.02
2017-10-18T06:26:11.785Z,11.07
2017-10-18T06:27:11.845Z,11.09
2017-10-18T06:28:11.860Z,11.09
2017-10-18T06:29:11.892Z,11.09
2017-10-18T06:30:11.923Z,11.14
2017-10-18T06:31:11.957Z,11.17
2017-10-18T06:32:11.994Z,11.16
2017-10-18T06:33:12.028Z,11.24
2017-10-18T06:34:12.061Z,11.25
2017-10-18T06:35:12.104Z,11.29
2017-10-18T06:36:12.131Z,11.25
2017-10-18T06:37:12.174Z,11.27
2017-10-18T06:38:12.195Z,11.32
2017-10-18T06:39:12.308Z,11.35
2017-10-18T06:40:13.806Z,11.36
2017-10-18T06:41:12.314Z,11.39
2017-10-18T06:42:12.355Z,11.53
2017-10-18T06:43:12.386Z,11.57
2017-10-18T06:44:12.593Z,11.47
2017-10-18T06:45:12.517Z,11.62
2017-10-18T06:46:12.651Z,11.61
2017-10-18T06:47:12.520Z,11.72
2017-10-18T06:48:12.543Z,11.72
2017-10-18T06:49:12.581Z,11.75
2017-10-18T06:50:12.612Z,11.85
2017-10-18T06:51:12.649Z,11.87
2017-10-18T06:52:12.687Z,11.77
2017-10-18T06:53:12.726Z,11.82
2017-10-18T06:54:12.767Z,11.80
2017-10-18T06:55:12.794Z,11.82
2017-10-18T06:56:12.828Z,11.85
2017-10-18T06:57:12.884Z,12.01
2017-10-18T06:58:12.911Z,12.05
2017-10-18T06:59:12.990Z,12.11
2017-10-18T07:00:12.963Z,12.06
2017-10-18T07:01:13.011Z,12.20
2017-10-18T07:02:13.036Z,12.20
2017-10-18T07:03:13.093Z,12.21
2017-10-18T07:04:13.110Z,12.19
2017-10-18T07:05:13.140Z,12.21
2017-10-18T07:06:13.175Z,12.29
2017-10-18T07:07:13.211Z,12.27
2017-10-18T07:08:13.258Z,12.34
2017-10-18T07:09:13.284Z,12.34
2017-10-18T07:10:13.333Z,12.41
2017-10-18T07:11:13.359Z,12.41
2017-10-18T07:12:13.387Z,12.51
2017-10-18T07:13:13.426Z,12.41
2017-10-18T07:14:13.537Z,12.49
2017-10-18T07:15:13.507Z,12.54
2017-10-18T07:16:13.530Z,12.52
2017-10-18T07:17:13.570Z,12.63
2017-10-18T07:18:13.642Z,12.64
2017-10-18T07:19:13.639Z,12.67
2017-10-18T07:20:13.672Z,12.74
2017-10-18T07:21:13.708Z,12.74
2017-10-18T07:22:13.753Z,12.82
2017-10-18T07:23:13.779Z,12.77
2017-10-18T07:24:13.831Z,12.85
2017-10-18T07:25:13.850Z,12.99
2017-10-18T07:26:13.891Z,12.97
2017-10-18T07:27:13.925Z,12.95
2017-10-18T07:28:13.961Z,12.99
2017-10-18T07:29:13.994Z,13.02
2017-10-18T07:30:14.032Z,12.99
2017-10-18T07:31:14.107Z,12.99
2017-10-18T07:32:14.100Z,13.11
2017-10-18T07:33:14.142Z,13.09
2017-10-18T07:34:14.190Z,13.09
2017-10-18T07:35:14.208Z,13.17
2017-10-18T07:36:14.250Z,13.15
2017-10-18T07:37:14.284Z,13.14
2017-10-18T07:38:14.319Z,13.22
2017-10-18T07:39:14.351Z,13.18
2017-10-18T07:40:17.531Z,13.24
2017-10-18T07:41:14.428Z,13.21
2017-10-18T07:42:14.462Z,13.25
2017-10-18T07:43:14.533Z,13.38
2017-10-18T07:44:14.532Z,13.38
2017-10-18T07:45:14.569Z,13.33
2017-10-18T07:46:14.617Z,13.37
2017-10-18T07:47:14.643Z,13.41
2017-10-18T07:48:15.344Z,13.51
2017-10-18T07:49:14.714Z,13.54
2017-10-18T07:50:14.750Z,13.51
2017-10-18T07:51:14.791Z,13.52
2017-10-18T07:52:14.821Z,13.55
2017-10-18T07:53:14.872Z,13.54
2017-10-18T07:54:14.906Z,13.59
2017-10-18T07:55:14.959Z,13.55
2017-10-18T07:56:14.966Z,13.59
2017-10-18T07:57:15.010Z,13.65
2017-10-18T07:58:15.042Z,13.71
2017-10-18T07:59:15.075Z,13.73
2017-10-18T08:00:15.124Z,13.73
2017-10-18T08:01:15.152Z,13.81
2017-10-18T08:02:15.233Z,13.84
2017-10-18T08:03:15.232Z,13.95
2017-10-18T08:04:15.323Z,13.92
2017-10-18T08:05:15.317Z,14.01
2017-10-18T08:06:15.337Z,14.06
2017-10-18T08:07:15.415Z,14.14
2017-10-18T08:08:15.545Z,14.07
2017-10-18T08:09:15.508Z,14.04
2017-10-18T08:10:15.617Z,14.10
2017-10-18T08:11:15.618Z,14.02
2017-10-18T08:12:15.614Z,14.10
2017-10-18T08:13:15.586Z,14.06
2017-10-18T08:14:15.627Z,14.14
2017-10-18T08:15:15.664Z,14.14
2017-10-18T08:16:15.699Z,14.10
2017-10-18T08:17:15.763Z,14.04
2017-10-18T08:18:15.777Z,14.12
2017-10-18T08:19:15.810Z,14.17
2017-10-18T08:20:15.848Z,14.24
2017-10-18T08:21:15.883Z,14.19
2017-10-18T08:22:15.921Z,14.29
2017-10-18T08:23:15.957Z,14.35
2017-10-18T08:24:15.997Z,14.32
2017-10-18T08:25:16.042Z,14.49
2017-10-18T08:26:16.070Z,14.49
2017-10-18T08:27:16.109Z,14.46
2017-10-18T08:28:16.140Z,14.56
2017-10-18T08:29:16.190Z,14.54
2017-10-18T08:30:16.252Z,14.74
2017-10-18T08:31:16.249Z,14.68
2017-10-18T08:32:16.288Z,14.80
2017-10-18T08:33:16.330Z,14.87
2017-10-18T08:34:16.369Z,14.90
2017-10-18T08:35:16.405Z,14.91
2017-10-18T08:36:16.442Z,14.95
2017-10-18T08:37:16.474Z,15.03
2017-10-18T08:38:16.516Z,15.08
2017-10-18T08:39:16.546Z,15.15
2017-10-18T08:40:16.589Z,15.21
2017-10-18T08:41:16.621Z,15.24
2017-10-18T08:42:16.661Z,15.24
2017-10-18T08:43:16.699Z,15.27
2017-10-18T08:44:16.732Z,15.31
2017-10-18T08:45:16.822Z,15.33
2017-10-18T08:46:16.811Z,15.35
2017-10-18T08:47:16.844Z,15.45
2017-10-18T08:48:16.881Z,15.42
2017-10-18T08:49:16.924Z,15.56
2017-10-18T08:50:16.959Z,15.52
2017-10-18T08:51:16.999Z,15.57
2017-10-18T08:52:17.032Z,15.59
2017-10-18T08:53:17.074Z,15.61
2017-10-18T08:54:17.152Z,15.61
2017-10-18T08:55:17.208Z,15.63
2017-10-18T08:56:17.230Z,15.59
2017-10-18T08:57:17.230Z,15.63
2017-10-18T08:58:17.258Z,15.67
2017-10-18T08:59:17.312Z,15.67
2017-10-18T09:00:17.335Z,15.74
2017-10-18T09:01:17.372Z,15.79
2017-10-18T09:02:17.411Z,15.82
2017-10-18T09:03:17.608Z,15.88
2017-10-18T09:04:17.493Z,15.94
2017-10-18T09:05:17.527Z,15.94
2017-10-18T09:06:17.565Z,15.92
2017-10-18T09:07:17.619Z,15.97
2017-10-18T09:08:17.658Z,15.97
2017-10-18T09:09:17.693Z,16.00
2017-10-18T09:10:17.713Z,15.96
2017-10-18T09:11:18.042Z,16.09
2017-10-18T09:12:17.792Z,16.07
2017-10-18T09:13:17.827Z,16.12
2017-10-18T09:14:17.867Z,16.16
2017-10-18T09:15:17.907Z,16.14
2017-10-18T09:16:17.942Z,16.14
2017-10-18T09:17:17.983Z,16.31
2017-10-18T09:18:18.027Z,16.40
2017-10-18T09:19:18.061Z,16.31
2017-10-18T09:20:18.169Z,16.38
2017-10-18T09:21:18.132Z,16.35
2017-10-18T09:22:18.327Z,16.37
2017-10-18T09:23:18.211Z,16.41
2017-10-18T09:24:18.244Z,16.42
2017-10-18T09:25:18.285Z,16.48
2017-10-18T09:26:18.323Z,16.50
2017-10-18T09:27:18.364Z,16.55
2017-10-18T09:28:18.468Z,16.52
2017-10-18T09:29:18.440Z,16.50
2017-10-18T09:30:18.482Z,16.62
2017-10-18T09:31:18.524Z,16.62
2017-10-18T09:32:18.644Z,16.63
2017-10-18T09:33:18.699Z,16.62
2017-10-18T09:34:18.631Z,16.65
2017-10-18T09:35:18.709Z,16.65
2017-10-18T09:36:18.710Z,16.68
2017-10-18T09:37:18.749Z,16.68
2017-10-18T09:38:18.788Z,16.73
2017-10-18T09:39:18.825Z,16.78
2017-10-18T09:40:18.870Z,16.74
2017-10-18T09:41:18.906Z,16.78
2017-10-18T09:42:18.938Z,16.71
2017-10-18T09:43:18.981Z,16.74
2017-10-18T09:44:19.016Z,16.77
2017-10-18T09:45:19.067Z,16.90
2017-10-18T09:46:19.094Z,16.89
2017-10-18T09:47:19.131Z,16.95
2017-10-18T09:48:19.168Z,17.03
2017-10-18T09:49:19.211Z,16.96
2017-10-18T09:50:19.248Z,16.99
2017-10-18T09:51:19.329Z,16.96
2017-10-18T09:52:19.327Z,17.00
2017-10-18T09:53:19.432Z,17.06
2017-10-18T09:54:19.416Z,17.11
2017-10-18T09:55:19.482Z,17.10
2017-10-18T09:56:19.478Z,17.22
2017-10-18T09:57:19.520Z,17.11
2017-10-18T09:58:19.569Z,17.25
2017-10-18T09:59:19.599Z,17.25
2017-10-18T10:00:19.642Z,17.22
2017-10-18T10:01:19.681Z,17.33
2017-10-18T10:02:19.719Z,17.33
2017-10-18T10:03:19.750Z,17.25
2017-10-18T10:04:19.792Z,17.29
2017-10-18T10:05:19.841Z,17.36
2017-10-18T10:06:19.886Z,17.33
2017-10-18T10:07:19.915Z,17.44
2017-10-18T10:08:19.955Z,17.46
2017-10-18T10:09:20.118Z,17.48
2017-10-18T10:10:20.030Z,17.59
2017-10-18T10:11:20.154Z,17.69
2017-10-18T10:12:20.110Z,17.66
2017-10-18T10:13:20.161Z,17.71
2017-10-18T10:14:20.183Z,17.69
2017-10-18T10:15:20.222Z,17.67
2017-10-18T10:16:20.257Z,17.78
2017-10-18T10:17:20.345Z,17.73
2017-10-18T10:18:20.340Z,17.66
2017-10-18T10:19:20.379Z,17.73
2017-10-18T10:20:20.504Z,17.67
2017-10-18T10:21:20.468Z,17.67
2017-10-18T10:22:20.515Z,17.78
2017-10-18T10:23:20.567Z,17.74
2017-10-18T10:24:20.662Z,17.82
2017-10-18T10:25:20.612Z,17.84
2017-10-18T10:26:20.682Z,17.92
2017-10-18T10:27:20.695Z,17.94
2017-10-18T10:28:20.728Z,17.97
2017-10-18T10:29:20.771Z,18.02
2017-10-18T10:30:20.838Z,18.17
2017-10-18T10:31:20.881Z,18.21
2017-10-18T10:32:20.934Z,18.24
2017-10-18T10:33:20.925Z,18.24
2017-10-18T10:34:20.964Z,18.28
2017-10-18T10:35:21.025Z,18.31
2017-10-18T10:36:21.041Z,18.25
2017-10-18T10:37:21.082Z,18.34
2017-10-18T10:38:21.120Z,18.31
2017-10-18T10:39:21.166Z,18.33
2017-10-18T10:40:21.205Z,18.40
2017-10-18T10:41:21.239Z,18.43
2017-10-18T10:42:21.280Z,18.55
2017-10-18T10:43:21.319Z,18.61
2017-10-18T10:44:21.359Z,18.61
2017-10-18T10:45:21.398Z,18.64
2017-10-18T10:46:21.445Z,18.67
2017-10-18T10:47:21.478Z,18.74
2017-10-18T10:48:21.516Z,18.70
2017-10-18T10:49:21.560Z,18.73
2017-10-18T10:50:21.599Z,18.73
2017-10-18T10:51:21.640Z,18.70
2017-10-18T10:52:21.680Z,18.87
2017-10-18T10:53:21.721Z,18.83
2017-10-18T10:54:21.764Z,18.79
2017-10-18T10:55:21.838Z,18.97
2017-10-18T10:56:21.843Z,18.84
2017-10-18T10:57:21.880Z,18.91
2017-10-18T10:58:21.934Z,18.86
2017-10-18T10:59:21.958Z,18.94
2017-10-18T11:00:21.999Z,18.98
2017-10-18T11:01:22.045Z,18.95
2017-10-18T11:02:22.087Z,19.02
2017-10-18T11:03:22.133Z,19.01
2017-10-18T11:04:22.158Z,19.01
2017-10-18T11:05:22.210Z,19.05
2017-10-18T11:06:22.242Z,19.13
2017-10-18T11:07:22.312Z,19.17
2017-10-18T11:08:22.320Z,19.25
2017-10-18T11:09:22.367Z,19.17
2017-10-18T11:10:22.415Z,19.01
2017-10-18T11:11:22.453Z,19.08
2017-10-18T11:12:22.490Z,19.06
2017-10-18T11:13:22.576Z,19.02
2017-10-18T11:14:22.727Z,18.95
2017-10-18T11:15:22.610Z,18.97
2017-10-18T11:16:22.645Z,18.94
2017-10-18T11:17:22.686Z,18.99
2017-10-18T11:18:22.746Z,19.01
2017-10-18T11:19:22.767Z,19.06
2017-10-18T11:20:22.820Z,19.10
2017-10-18T11:21:22.844Z,19.08
2017-10-18T11:22:22.895Z,19.18
2017-10-18T11:23:22.930Z,19.15
2017-10-18T11:24:22.968Z,19.32
2017-10-18T11:25:23.047Z,19.39
2017-10-18T11:26:23.052Z,19.39
2017-10-18T11:27:23.090Z,19.43
2017-10-18T11:28:23.127Z,19.43
2017-10-18T11:29:23.167Z,19.43
2017-10-18T11:30:23.209Z,19.51
2017-10-18T11:31:23.253Z,19.60
2017-10-18T11:32:23.293Z,19.58
2017-10-18T11:33:23.350Z,19.68
2017-10-18T11:34:23.372Z,19.63
2017-10-18T11:35:23.415Z,19.78
2017-10-18T11:36:23.669Z,19.88
2017-10-18T11:37:24.380Z,19.76
2017-10-18T11:38:24.477Z,19.93
2017-10-18T11:39:23.667Z,19.91
2017-10-18T11:40:24.493Z,19.94
2017-10-18T11:41:24.785Z,19.84
2017-10-18T11:42:23.701Z,20.03
2017-10-18T11:43:23.738Z,20.02
2017-10-18T11:44:23.802Z,20.09
2017-10-18T11:45:23.861Z,20.21
2017-10-18T11:46:24.252Z,20.15
2017-10-18T11:47:23.902Z,20.23
2017-10-18T11:48:23.953Z,20.30
2017-10-18T11:49:23.987Z,20.30
2017-10-18T11:50:24.046Z,20.27
2017-10-18T11:51:24.251Z,20.35
2017-10-18T11:52:24.151Z,20.54
2017-10-18T11:53:24.150Z,20.54
2017-10-18T11:54:24.193Z,20.54
2017-10-18T11:55:24.239Z,20.59
2017-10-18T11:56:24.278Z,20.59
2017-10-18T11:57:24.320Z,20.58
2017-10-18T11:58:24.358Z,20.61
2017-10-18T11:59:24.476Z,20.66
2017-10-18T12:00:24.701Z,20.69
2017-10-18T12:01:24.483Z,20.72
2017-10-18T12:02:24.550Z,20.72
2017-10-18T12:03:24.566Z,20.68
2017-10-18T12:04:24.608Z,20.68
2017-10-18T12:05:24.647Z,20.72
2017-10-18T12:06:24.691Z,20.71
2017-10-18T12:07:24.757Z,20.71
2017-10-18T12:08:24.800Z,20.68
2017-10-18T12:09:24.824Z,20.76
2017-10-18T12:10:24.862Z,20.71
2017-10-18T12:11:24.905Z,20.79
2017-10-18T12:12:24.939Z,20.84
2017-10-18T12:13:24.982Z,20.89
2017-10-18T12:14:25.030Z,20.87
2017-10-18T12:15:25.102Z,20.93
2017-10-18T12:16:25.107Z,20.87
2017-10-18T12:17:25.149Z,20.93
2017-10-18T12:18:25.245Z,20.95
2017-10-18T12:19:25.231Z,20.96
2017-10-18T12:20:25.324Z,20.96
2017-10-18T12:21:25.316Z,20.90
2017-10-18T12:22:25.357Z,20.87
2017-10-18T12:23:25.423Z,20.91
2017-10-18T12:24:25.442Z,20.87
2017-10-18T12:25:25.484Z,20.81
2017-10-18T12:26:25.524Z,20.84
2017-10-18T12:27:25.568Z,20.74
2017-10-18T12:28:25.609Z,20.84
2017-10-18T12:29:25.651Z,20.72
2017-10-18T12:30:25.731Z,20.80
2017-10-18T12:31:25.740Z,20.84
2017-10-18T12:32:25.781Z,20.83
2017-10-18T12:33:25.820Z,20.83
2017-10-18T12:34:25.862Z,20.76
2017-10-18T12:35:25.915Z,20.76
2017-10-18T12:36:25.946Z,20.68
2017-10-18T12:37:25.990Z,20.59
2017-10-18T12:38:26.030Z,20.58
2017-10-18T12:39:26.075Z,20.56
2017-10-18T12:40:26.128Z,20.39
2017-10-18T12:41:26.244Z,20.35
2017-10-18T12:42:26.200Z,20.34
2017-10-18T12:43:26.245Z,20.27
2017-10-18T12:44:26.288Z,20.27
2017-10-18T12:45:26.440Z,20.23
2017-10-18T12:46:26.392Z,20.24
2017-10-18T12:47:26.409Z,20.15
2017-10-18T12:48:26.454Z,20.12
2017-10-18T12:49:26.493Z,20.12
2017-10-18T12:50:26.536Z,20.03
2017-10-18T12:51:26.575Z,20.06
2017-10-18T12:52:26.619Z,20.03
2017-10-18T12:53:26.666Z,20.03